Index of /courses/course-descriptions

 NameLast modifiedSizeDescription

 Parent Directory   -  
 spring-2026-seminar-..>2026-05-06 07:51 594K 
 spring-2026-300-semi..>2026-05-06 07:51 239K 
 philosophy-457.557-m..>2026-05-06 07:51 101K 
 phil-486586-later-he..>2026-05-06 07:51 131K 
 phil-486-586-derrida..>2026-05-06 07:51 191K 
 phil-486-586-derrida..>2026-05-06 07:51 166K 
 phil-480-580-philoso..>2026-05-06 07:51 181K 
 phil-469-569-recent-..>2026-05-06 07:51 112K 
 phil-469-569-merleau..>2026-05-06 07:51 63K 
 phil-468-568-lacan.pdf 2026-05-06 07:51 47K 
 phil-467-567-philoso..>2026-05-06 07:51 118K 
 phil-458-558-the-eth..>2026-05-06 07:51 67K 
 phil-458-558-ethics-..>2026-05-06 07:51 69K 
 phil-457-557-platos-..>2026-05-06 07:51 110K 
 phil-455-555-philoso..>2026-05-06 07:51 82K 
 phil-454-554-dialect..>2026-05-06 07:51 162K 
 phil-447-547-friends..>2026-05-06 07:51 153K 
 phil-442-542-the-lat..>2026-05-06 07:51 146K 
 phil-442-542-badiou-..>2026-05-06 07:51 79K 
 phil-441-philosophy-..>2026-05-06 07:51 75K 
 phil-426-526-the-sel..>2026-05-06 07:51 101K 
 phil-415-515-history..>2026-05-06 07:51 101K 
 phil-410-510-kant.pdf 2026-05-06 07:51 69K 
 phil-352-theory-of-k..>2026-05-06 07:51 136K 
 kalar-469-569.pdf 2026-05-06 07:51 113K 
 fall2025-phil-400-50..>2026-05-06 07:51 509K 
 fall-2026-400500-com..>2026-05-06 07:51 321K 
 fall-2026-2000-combi..>2026-05-06 07:51 262K 
 fall-2026-300-combin..>2026-05-06 07:51 475K 
 carolyn-thomas-phil-..>2026-05-06 07:51 76K 
 becker-kelly-course-..>2026-05-06 07:51 90K 
 Wood Image1.png 2022-07-26 07:49 155K 
 Wood Image.png 2022-07-26 07:48 155K 
 2021/ 2024-03-22 12:56 -  
 2019/ 2024-03-22 12:56 -  
 2018/ 2024-03-22 12:56 -  
 421-521-early-heideg..>2026-05-06 07:51 201K